Portada
METAR-TAF:

METAR-TAF

Aeroports :

Huế, Vietnam

latitud: 16-24N, longitud: 107-41E, altitud: 17 m

Observació

L'informe es va fer fa 30 minuts, a les 11:30 UTC
Vent 5 kt del Oest/Sud-Oest
Temperatura 17°C
Humitat 77%
Pressió 1023 hPa
Visibilitat 10 km o més
Núvols disperses a una alçada de 2000 ft
Núvols disperses a una alçada de 6000 ft

METAR: VVPB 071130Z 24005KT 9999 SCT020 SCT060 17/13 Q1023 NOSIG

Hora: 19:00 (12:00 UTC)

Pronòstic

L'informe es va fer fa 1 hora i 0 minuts, a les 11:00 UTC
Pronòstic vàlid del 07 a les 12 UTC al 08 a les 12 UTC
Vent 4 kt del Nord-Oest
Visibilitat: 8000 m
Núvols disperses a una alçada de 1500 ft
Núvols disperses a una alçada de 6000 ft

TAF: VVPB 071100Z 0712/0812 31004KT 8000 SCT015 SCT060

Observacions i pronòstics meteorològics de més de 4000 aeroports (METAR i TAF).

Les estacions disponibles són els punts grocs i vermells al mapa.

Posi el ratolí al punt desitjat per veure el nom de l'estació.

Feu clic per veure les observacions i els pronòstics meteorològics.

Per canviar el mapa: feu clic els botons verds amb una creu de color negre per apropar; al botó verd amb un guió per allunyar la imatge; o en les fletxes verdes per a mapes adjacents.


METAR-TAF: